createdAt,value
2023-01-31T00:00:06.818Z,0.00
2023-01-31T00:01:06.842Z,0.00
2023-01-31T00:02:06.823Z,0.00
2023-01-31T00:03:06.845Z,0.00
2023-01-31T00:04:06.774Z,0.00
2023-01-31T00:05:06.759Z,0.00
2023-01-31T00:06:06.756Z,0.00
2023-01-31T00:07:06.752Z,0.00
2023-01-31T00:08:06.831Z,0.00
2023-01-31T00:09:06.734Z,0.00
2023-01-31T00:10:06.724Z,0.00
2023-01-31T00:11:06.696Z,0.00
2023-01-31T00:12:06.693Z,0.00
2023-01-31T00:13:06.691Z,0.00
2023-01-31T00:14:06.694Z,0.00
2023-01-31T00:15:06.746Z,0.00
2023-01-31T00:16:06.694Z,0.00
2023-01-31T00:17:06.635Z,0.00
2023-01-31T00:18:06.633Z,0.00
2023-01-31T00:19:06.643Z,0.00
2023-01-31T00:20:06.679Z,0.00
2023-01-31T00:21:06.608Z,0.00
2023-01-31T00:22:06.587Z,0.00
2023-01-31T00:23:06.608Z,0.00
2023-01-31T00:24:07.010Z,0.00
2023-01-31T00:25:06.563Z,0.00
2023-01-31T00:26:06.545Z,0.00
2023-01-31T00:27:06.541Z,0.00
2023-01-31T00:28:06.526Z,0.00
2023-01-31T00:29:06.529Z,0.00
2023-01-31T00:30:06.502Z,0.00
2023-01-31T00:31:06.574Z,0.00
2023-01-31T00:32:06.650Z,0.00
2023-01-31T00:33:06.465Z,0.00
2023-01-31T00:34:06.466Z,0.00
2023-01-31T00:35:06.450Z,0.00
2023-01-31T00:36:06.566Z,0.00
2023-01-31T00:37:06.458Z,0.00
2023-01-31T00:38:06.434Z,0.00
2023-01-31T00:39:06.429Z,0.00
2023-01-31T00:40:06.425Z,0.00
2023-01-31T00:41:06.398Z,0.00
2023-01-31T00:42:06.492Z,0.00
2023-01-31T00:43:06.375Z,0.00
2023-01-31T00:44:06.389Z,0.00
2023-01-31T00:45:06.343Z,0.00
2023-01-31T00:46:06.359Z,0.00
2023-01-31T00:47:06.459Z,0.00
2023-01-31T00:48:06.318Z,0.00
2023-01-31T00:49:06.316Z,0.00
2023-01-31T00:50:06.302Z,0.00
2023-01-31T00:51:06.286Z,0.00
2023-01-31T00:52:06.442Z,0.00
2023-01-31T00:53:06.270Z,0.00
2023-01-31T00:54:06.275Z,0.00
2023-01-31T00:55:06.260Z,0.00
2023-01-31T00:56:06.277Z,0.00
2023-01-31T00:57:06.221Z,0.00
2023-01-31T00:58:06.228Z,0.00
2023-01-31T00:59:06.204Z,0.00
2023-01-31T01:00:06.198Z,0.00
2023-01-31T01:01:06.276Z,0.00
2023-01-31T01:02:06.184Z,0.00
2023-01-31T01:03:06.162Z,0.00
2023-01-31T01:04:06.174Z,0.00
2023-01-31T01:05:06.154Z,0.00
2023-01-31T01:06:06.141Z,0.00
2023-01-31T01:07:06.116Z,0.00
2023-01-31T01:08:06.159Z,0.00
2023-01-31T01:09:06.131Z,0.00
2023-01-31T01:10:06.093Z,0.00
2023-01-31T01:11:06.070Z,0.00
2023-01-31T01:12:06.092Z,0.00
2023-01-31T01:13:06.095Z,0.00
2023-01-31T01:14:06.067Z,0.00
2023-01-31T01:15:06.064Z,0.00
2023-01-31T01:16:06.059Z,0.00
2023-01-31T01:17:06.017Z,0.00
2023-01-31T01:18:06.000Z,0.00
2023-01-31T01:19:06.023Z,0.00
2023-01-31T01:20:06.000Z,0.00
2023-01-31T01:21:05.973Z,0.00
2023-01-31T01:22:06.010Z,0.00
2023-01-31T01:23:05.954Z,0.00
2023-01-31T01:24:05.957Z,0.00
2023-01-31T01:25:05.941Z,0.00
2023-01-31T01:26:05.923Z,0.00
2023-01-31T01:27:05.920Z,0.00
2023-01-31T01:28:05.918Z,0.00
2023-01-31T01:29:05.891Z,0.00
2023-01-31T01:30:05.910Z,0.00
2023-01-31T01:31:05.899Z,0.00
2023-01-31T01:32:05.927Z,0.00
2023-01-31T01:33:05.857Z,0.00
2023-01-31T01:34:05.849Z,0.00
2023-01-31T01:35:05.826Z,0.00
2023-01-31T01:36:05.834Z,0.00
2023-01-31T01:37:05.799Z,0.00
2023-01-31T01:38:05.809Z,0.00
2023-01-31T01:39:05.791Z,0.00
2023-01-31T01:40:05.820Z,0.00
2023-01-31T01:41:05.775Z,0.00
2023-01-31T01:42:05.766Z,0.00
2023-01-31T01:43:05.775Z,0.00
2023-01-31T01:44:05.740Z,0.00
2023-01-31T01:45:05.731Z,0.00
2023-01-31T01:46:06.797Z,0.00
2023-01-31T01:47:05.755Z,0.00
2023-01-31T01:48:05.705Z,0.00
2023-01-31T01:49:05.715Z,0.00
2023-01-31T01:50:05.692Z,0.00
2023-01-31T01:51:05.668Z,0.00
2023-01-31T01:52:05.676Z,0.00
2023-01-31T01:53:05.648Z,0.00
2023-01-31T01:54:05.650Z,0.00
2023-01-31T01:55:05.633Z,0.00
2023-01-31T01:56:05.684Z,0.00
2023-01-31T01:57:05.632Z,0.00
2023-01-31T01:58:05.601Z,0.00
2023-01-31T01:59:05.589Z,0.00
2023-01-31T02:00:05.585Z,0.00
2023-01-31T02:01:05.596Z,0.00
2023-01-31T02:02:05.628Z,0.00
2023-01-31T02:03:05.541Z,0.00
2023-01-31T02:04:05.539Z,0.00
2023-01-31T02:05:05.521Z,0.00
2023-01-31T02:06:05.612Z,0.00
2023-01-31T02:07:05.510Z,0.00
2023-01-31T02:08:05.498Z,0.00
2023-01-31T02:09:05.493Z,0.00
2023-01-31T02:10:05.491Z,0.00
2023-01-31T02:11:05.460Z,0.00
2023-01-31T02:12:05.478Z,0.00
2023-01-31T02:13:05.464Z,0.00
2023-01-31T02:14:05.419Z,0.00
2023-01-31T02:15:05.547Z,0.00
2023-01-31T02:16:05.402Z,0.00
2023-01-31T02:17:05.414Z,0.00
2023-01-31T02:18:05.381Z,0.00
2023-01-31T02:19:05.380Z,0.00
2023-01-31T02:20:05.416Z,0.00
2023-01-31T02:21:05.363Z,0.00
2023-01-31T02:22:05.346Z,0.00
2023-01-31T02:23:05.336Z,0.00
2023-01-31T02:24:05.334Z,0.00
2023-01-31T02:25:05.318Z,0.00
2023-01-31T02:26:05.299Z,0.00
2023-01-31T02:27:05.295Z,0.00
2023-01-31T02:28:05.293Z,0.00
2023-01-31T02:29:05.275Z,0.00
2023-01-31T02:30:05.277Z,0.00
2023-01-31T02:31:05.313Z,0.00
2023-01-31T02:32:05.245Z,0.00
2023-01-31T02:33:05.258Z,0.00
2023-01-31T02:34:05.229Z,0.00
2023-01-31T02:35:05.224Z,0.00
2023-01-31T02:36:05.192Z,0.00
2023-01-31T02:37:05.197Z,0.00
2023-01-31T02:38:05.200Z,0.00
2023-01-31T02:39:05.175Z,0.00
2023-01-31T02:40:05.176Z,0.00
2023-01-31T02:41:05.159Z,0.00
2023-01-31T02:42:05.149Z,0.00
2023-01-31T02:43:05.138Z,0.00
2023-01-31T02:44:05.109Z,0.00
2023-01-31T02:45:05.122Z,0.00
2023-01-31T02:46:05.187Z,0.00
2023-01-31T02:47:05.119Z,0.00
2023-01-31T02:48:05.076Z,0.00
2023-01-31T02:49:05.118Z,0.00
2023-01-31T02:50:05.067Z,0.00
2023-01-31T02:51:05.052Z,0.00
2023-01-31T02:52:05.035Z,0.00
2023-01-31T02:53:05.093Z,0.00
2023-01-31T02:54:05.010Z,0.00
2023-01-31T02:55:05.016Z,0.00
2023-01-31T02:56:04.989Z,0.00
2023-01-31T02:57:05.002Z,0.00
2023-01-31T02:58:04.983Z,0.00
2023-01-31T02:59:04.965Z,0.00
2023-01-31T03:00:04.992Z,0.00
2023-01-31T03:01:04.962Z,0.00
2023-01-31T03:02:04.948Z,0.00
2023-01-31T03:03:04.940Z,0.00
2023-01-31T03:04:04.914Z,0.00
2023-01-31T03:05:04.951Z,0.00
2023-01-31T03:06:04.962Z,0.00
2023-01-31T03:07:04.941Z,0.00
2023-01-31T03:08:04.900Z,0.00
2023-01-31T03:09:04.863Z,0.00
2023-01-31T03:10:04.925Z,0.00
2023-01-31T03:11:04.838Z,0.00
2023-01-31T03:12:04.822Z,0.00
2023-01-31T03:13:04.832Z,0.00
2023-01-31T03:14:04.829Z,0.00
2023-01-31T03:15:04.803Z,0.00
2023-01-31T03:16:04.810Z,0.00
2023-01-31T03:17:04.825Z,0.00
2023-01-31T03:18:04.766Z,0.00
2023-01-31T03:19:04.845Z,0.00
2023-01-31T03:20:04.781Z,0.00
2023-01-31T03:21:04.743Z,0.00
2023-01-31T03:22:04.760Z,0.00
2023-01-31T03:23:04.715Z,0.00
2023-01-31T03:24:04.715Z,0.00
2023-01-31T03:25:04.703Z,0.00
2023-01-31T03:26:04.694Z,0.00
2023-01-31T03:27:04.688Z,0.00
2023-01-31T03:28:04.655Z,0.00
2023-01-31T03:29:04.663Z,0.00
2023-01-31T03:30:04.690Z,0.00
2023-01-31T03:31:04.743Z,0.00
2023-01-31T03:32:04.619Z,0.00
2023-01-31T03:33:04.617Z,0.00
2023-01-31T03:34:04.613Z,0.00
2023-01-31T03:35:04.671Z,0.00
2023-01-31T03:36:04.577Z,0.00
2023-01-31T03:37:04.581Z,0.00
2023-01-31T03:38:04.553Z,0.00
2023-01-31T03:39:04.571Z,0.00
2023-01-31T03:40:04.569Z,0.00
2023-01-31T03:41:04.543Z,0.00
2023-01-31T03:42:04.519Z,0.00
2023-01-31T03:43:04.537Z,0.00
2023-01-31T03:44:04.510Z,0.00
2023-01-31T03:45:04.520Z,0.00
2023-01-31T03:46:04.495Z,0.00
2023-01-31T03:47:04.483Z,0.00
2023-01-31T03:48:04.467Z,0.00
2023-01-31T03:49:04.459Z,0.00
2023-01-31T03:50:04.433Z,0.00
2023-01-31T03:51:04.524Z,0.00
2023-01-31T03:52:04.415Z,0.00
2023-01-31T03:53:04.411Z,0.00
2023-01-31T03:54:04.400Z,0.00
2023-01-31T03:55:04.406Z,0.00
2023-01-31T03:56:04.365Z,0.00
2023-01-31T03:57:04.373Z,0.00
2023-01-31T03:58:04.374Z,0.00
2023-01-31T03:59:04.337Z,0.00
2023-01-31T04:00:04.335Z,0.00
2023-01-31T04:01:04.345Z,0.00
2023-01-31T04:02:04.314Z,0.00
2023-01-31T04:03:04.376Z,0.00
2023-01-31T04:04:04.279Z,0.00
2023-01-31T04:05:04.283Z,0.00
2023-01-31T04:06:04.273Z,0.00
2023-01-31T04:07:04.265Z,0.00
2023-01-31T04:08:04.255Z,0.00
2023-01-31T04:09:04.252Z,0.00
2023-01-31T04:10:04.263Z,0.00
2023-01-31T04:11:04.216Z,0.00
2023-01-31T04:12:04.205Z,0.00
2023-01-31T04:13:04.215Z,0.00
2023-01-31T04:14:04.224Z,0.00
2023-01-31T04:15:04.177Z,0.00
2023-01-31T04:16:04.358Z,0.00
2023-01-31T04:17:04.181Z,0.00
2023-01-31T04:18:04.142Z,0.00
2023-01-31T04:19:04.188Z,0.00
2023-01-31T04:20:04.153Z,0.00
2023-01-31T04:21:04.120Z,0.00
2023-01-31T04:22:04.099Z,0.00
2023-01-31T04:23:04.100Z,0.00
2023-01-31T04:24:04.073Z,0.00
2023-01-31T04:25:04.125Z,0.00
2023-01-31T04:26:04.106Z,0.00
2023-01-31T04:27:04.063Z,0.00
2023-01-31T04:28:04.044Z,0.00
2023-01-31T04:29:04.096Z,0.00
2023-01-31T04:30:04.070Z,0.00
2023-01-31T04:31:04.077Z,0.00
2023-01-31T04:32:04.102Z,0.00
2023-01-31T04:33:04.041Z,0.00
2023-01-31T04:34:03.987Z,0.00
2023-01-31T04:35:04.472Z,0.00
2023-01-31T04:36:03.965Z,0.00
2023-01-31T04:37:03.961Z,0.00
2023-01-31T04:38:03.941Z,0.00
2023-01-31T04:39:03.936Z,0.00
2023-01-31T04:40:03.921Z,0.00
2023-01-31T04:41:03.937Z,0.00
2023-01-31T04:42:03.974Z,0.00
2023-01-31T04:43:03.891Z,0.00
2023-01-31T04:44:03.914Z,0.00
2023-01-31T04:45:03.907Z,0.00
2023-01-31T04:46:03.856Z,0.00
2023-01-31T04:47:03.846Z,0.00
2023-01-31T04:48:03.843Z,0.00
2023-01-31T04:49:03.852Z,0.00
2023-01-31T04:50:03.810Z,0.00
2023-01-31T04:51:03.838Z,0.00
2023-01-31T04:52:03.854Z,0.00
2023-01-31T04:53:03.797Z,0.00
2023-01-31T04:54:03.770Z,0.00
2023-01-31T04:55:03.840Z,0.00
2023-01-31T04:56:03.821Z,0.00
2023-01-31T04:57:03.746Z,0.00
2023-01-31T04:58:05.783Z,0.00
2023-01-31T04:59:03.718Z,0.00
2023-01-31T05:00:03.715Z,0.00
2023-01-31T05:01:03.772Z,0.00
2023-01-31T05:02:03.694Z,0.00
2023-01-31T05:03:03.825Z,0.00
2023-01-31T05:04:03.652Z,1.00
2023-01-31T05:05:03.616Z,1.00
2023-01-31T05:06:03.594Z,1.00
2023-01-31T05:07:03.648Z,1.00
2023-01-31T05:08:03.567Z,1.00
2023-01-31T05:09:03.567Z,1.00
2023-01-31T05:10:03.557Z,1.00
2023-01-31T05:11:04.518Z,1.00
2023-01-31T05:12:03.546Z,1.00
2023-01-31T05:13:03.551Z,1.00
2023-01-31T05:14:03.516Z,1.00
2023-01-31T05:15:03.505Z,1.00
2023-01-31T05:16:03.533Z,1.00
2023-01-31T05:17:03.485Z,1.00
2023-01-31T05:18:03.499Z,1.00
2023-01-31T05:19:03.454Z,1.00
2023-01-31T05:20:03.509Z,1.00
2023-01-31T05:21:03.985Z,1.00
2023-01-31T05:22:03.938Z,1.00
2023-01-31T05:23:03.855Z,0.00
2023-01-31T05:24:03.722Z,0.00
2023-01-31T05:25:03.774Z,0.00
2023-01-31T05:26:03.538Z,0.00
2023-01-31T05:27:03.523Z,0.00
2023-01-31T05:28:03.423Z,0.00
2023-01-31T05:29:03.439Z,0.00
2023-01-31T05:30:03.426Z,0.00
2023-01-31T05:31:03.429Z,0.00
2023-01-31T05:32:03.997Z,0.00
2023-01-31T05:33:03.867Z,0.00
2023-01-31T05:34:03.574Z,0.00
2023-01-31T05:35:03.721Z,0.00
2023-01-31T05:36:03.791Z,0.00
2023-01-31T05:37:03.745Z,0.00
2023-01-31T05:38:03.471Z,0.00
2023-01-31T05:39:03.328Z,0.00
2023-01-31T05:40:03.296Z,0.00
2023-01-31T05:41:03.500Z,0.00
2023-01-31T05:42:03.278Z,0.00
2023-01-31T05:43:03.340Z,0.00
2023-01-31T05:44:03.258Z,0.00
2023-01-31T05:45:03.248Z,0.00
2023-01-31T05:46:03.804Z,0.00
2023-01-31T05:47:03.855Z,0.00
2023-01-31T05:48:03.567Z,0.00
2023-01-31T05:49:03.247Z,0.00
2023-01-31T05:50:03.308Z,0.00
2023-01-31T05:51:03.346Z,0.00
2023-01-31T05:52:03.338Z,0.00
2023-01-31T05:53:03.185Z,0.00
2023-01-31T05:54:03.170Z,0.00
2023-01-31T05:55:03.147Z,0.00
2023-01-31T05:56:03.205Z,0.00
2023-01-31T05:57:03.188Z,0.00
2023-01-31T05:58:03.129Z,0.00
2023-01-31T05:59:03.098Z,0.00
2023-01-31T06:00:03.139Z,0.00
2023-01-31T06:01:03.086Z,0.00
2023-01-31T06:02:03.118Z,0.00
2023-01-31T06:03:03.213Z,0.00
2023-01-31T06:04:03.152Z,0.00
2023-01-31T06:05:03.052Z,0.00
2023-01-31T06:06:03.067Z,0.00
2023-01-31T06:07:03.019Z,0.00
2023-01-31T06:08:03.020Z,0.00
2023-01-31T06:09:03.006Z,0.00
2023-01-31T06:10:02.983Z,0.00
2023-01-31T06:11:02.998Z,0.00
2023-01-31T06:12:02.963Z,0.00
2023-01-31T06:13:02.969Z,0.00
2023-01-31T06:14:02.955Z,0.00
2023-01-31T06:15:02.944Z,0.00
2023-01-31T06:16:02.955Z,0.00
2023-01-31T06:17:02.917Z,0.00
2023-01-31T06:18:02.915Z,0.00
2023-01-31T06:19:02.950Z,0.00
2023-01-31T06:20:02.880Z,0.00
2023-01-31T06:21:02.901Z,0.00
2023-01-31T06:22:02.861Z,0.00
2023-01-31T06:23:02.863Z,0.00
2023-01-31T06:24:02.847Z,0.00
2023-01-31T06:25:02.830Z,0.00
2023-01-31T06:26:02.843Z,0.00
2023-01-31T06:27:02.811Z,0.00
2023-01-31T06:28:02.795Z,1.00
2023-01-31T06:29:02.737Z,1.00
2023-01-31T06:30:02.750Z,1.00
2023-01-31T06:31:02.979Z,1.00
2023-01-31T06:32:02.702Z,1.00
2023-01-31T06:33:02.684Z,1.00
2023-01-31T06:34:02.772Z,0.00
2023-01-31T06:35:02.755Z,0.00
2023-01-31T06:36:02.728Z,0.00
2023-01-31T06:37:02.709Z,2.00
2023-01-31T06:38:02.661Z,2.00
2023-01-31T06:39:02.628Z,1.00
2023-01-31T06:40:02.633Z,1.00
2023-01-31T06:41:02.614Z,1.00
2023-01-31T06:42:02.686Z,0.00
2023-01-31T06:43:02.598Z,2.00
2023-01-31T06:44:02.621Z,2.00
2023-01-31T06:45:02.565Z,4.00
2023-01-31T06:46:02.624Z,3.00
2023-01-31T06:47:02.537Z,3.00
2023-01-31T06:48:02.560Z,7.00
2023-01-31T06:49:02.661Z,6.00
2023-01-31T06:50:02.530Z,4.00
2023-01-31T06:51:02.511Z,4.00
2023-01-31T06:52:02.503Z,3.00
2023-01-31T06:53:02.491Z,2.00
2023-01-31T06:54:02.473Z,1.00
2023-01-31T06:55:02.510Z,2.00
2023-01-31T06:56:02.463Z,6.00
2023-01-31T06:57:02.448Z,10.00
2023-01-31T06:58:02.437Z,10.00
2023-01-31T06:59:02.410Z,9.00
2023-01-31T07:00:02.420Z,8.00
2023-01-31T07:01:02.435Z,12.00
2023-01-31T07:02:02.380Z,11.00
2023-01-31T07:03:02.378Z,14.00
2023-01-31T07:04:02.410Z,18.00
2023-01-31T07:05:02.373Z,17.00
2023-01-31T07:06:02.378Z,19.00
2023-01-31T07:07:02.337Z,19.00
2023-01-31T07:08:02.337Z,21.00
2023-01-31T07:09:02.301Z,26.00
2023-01-31T07:10:02.312Z,27.00
2023-01-31T07:11:02.790Z,31.00
2023-01-31T07:12:02.327Z,35.00
2023-01-31T07:13:02.268Z,31.00
2023-01-31T07:14:02.319Z,32.00
2023-01-31T07:15:02.234Z,30.00
2023-01-31T07:16:02.263Z,29.00
2023-01-31T07:17:02.244Z,28.00
2023-01-31T07:18:02.213Z,28.00
2023-01-31T07:19:02.239Z,26.00
2023-01-31T07:20:02.204Z,25.00
2023-01-31T07:21:02.260Z,26.00
2023-01-31T07:22:02.182Z,26.00
2023-01-31T07:23:02.164Z,28.00
2023-01-31T07:24:02.169Z,27.00
2023-01-31T07:25:02.217Z,23.00
2023-01-31T07:26:02.150Z,21.00
2023-01-31T07:27:02.112Z,21.00
2023-01-31T07:28:02.141Z,27.00
2023-01-31T07:29:02.115Z,40.00
2023-01-31T07:30:02.111Z,40.00
2023-01-31T07:31:02.081Z,42.00
2023-01-31T07:32:02.139Z,43.00
2023-01-31T07:33:02.053Z,44.00
2023-01-31T07:34:02.049Z,45.00
2023-01-31T07:35:02.085Z,55.00
2023-01-31T07:36:02.030Z,46.00
2023-01-31T07:37:02.013Z,48.00
2023-01-31T07:38:02.005Z,48.00
2023-01-31T07:39:02.014Z,49.00
2023-01-31T07:40:02.044Z,46.00
2023-01-31T07:41:01.961Z,48.00
2023-01-31T07:42:01.977Z,52.00
2023-01-31T07:43:01.949Z,62.00
2023-01-31T07:44:01.959Z,61.00
2023-01-31T07:45:16.856Z,72.00
2023-01-31T07:46:01.953Z,76.00
2023-01-31T07:47:01.947Z,77.00
2023-01-31T07:48:01.894Z,81.00
2023-01-31T07:49:01.898Z,80.00
2023-01-31T07:50:01.879Z,83.00
2023-01-31T07:51:01.896Z,91.00
2023-01-31T07:52:01.897Z,103.00
2023-01-31T07:53:01.843Z,114.00
2023-01-31T07:54:01.886Z,114.00
2023-01-31T07:55:01.823Z,115.00
2023-01-31T07:56:01.817Z,130.00
2023-01-31T07:57:01.812Z,147.00
2023-01-31T07:58:01.803Z,154.00
2023-01-31T07:59:01.791Z,146.00
2023-01-31T08:00:01.794Z,146.00
2023-01-31T08:01:01.777Z,154.00
2023-01-31T08:02:01.763Z,173.00
2023-01-31T08:03:01.758Z,169.00
2023-01-31T08:04:18.256Z,162.00
2023-01-31T08:05:01.784Z,150.00
2023-01-31T08:06:01.724Z,172.00
2023-01-31T08:07:01.710Z,164.00
2023-01-31T08:08:01.690Z,151.00
2023-01-31T08:09:01.673Z,152.00
2023-01-31T08:10:01.692Z,184.00
2023-01-31T08:11:01.650Z,169.00
2023-01-31T08:12:01.688Z,158.00
2023-01-31T08:13:01.631Z,166.00
2023-01-31T08:14:01.621Z,159.00
2023-01-31T08:15:01.625Z,174.00
2023-01-31T08:16:01.645Z,185.00
2023-01-31T08:17:01.796Z,157.00
2023-01-31T08:18:02.447Z,142.00
2023-01-31T08:19:01.576Z,146.00
2023-01-31T08:20:01.569Z,134.00
2023-01-31T08:21:01.591Z,111.00
2023-01-31T08:22:01.587Z,100.00
2023-01-31T08:23:01.543Z,105.00
2023-01-31T08:24:01.529Z,120.00
2023-01-31T08:25:01.514Z,141.00
2023-01-31T08:26:01.502Z,155.00
2023-01-31T08:27:01.571Z,156.00
2023-01-31T08:28:01.522Z,162.00
2023-01-31T08:29:01.487Z,180.00
2023-01-31T08:30:01.463Z,190.00
2023-01-31T08:31:09.017Z,216.00
2023-01-31T08:32:01.734Z,252.00
2023-01-31T08:33:01.435Z,258.00
2023-01-31T08:34:01.418Z,276.00
2023-01-31T08:35:01.401Z,242.00
2023-01-31T08:36:01.435Z,251.00
2023-01-31T08:37:01.453Z,265.00
2023-01-31T08:38:15.757Z,299.00
2023-01-31T08:39:01.409Z,257.00
2023-01-31T08:40:01.363Z,245.00
2023-01-31T08:41:01.331Z,217.00
2023-01-31T08:42:01.354Z,195.00
2023-01-31T08:43:01.315Z,198.00
2023-01-31T08:44:04.188Z,200.00
2023-01-31T08:45:01.301Z,191.00
2023-01-31T08:46:01.278Z,265.00
2023-01-31T08:47:01.742Z,295.00
2023-01-31T08:48:01.271Z,324.00
2023-01-31T08:49:01.246Z,337.00
2023-01-31T08:50:01.278Z,356.00
2023-01-31T08:51:01.323Z,417.00
2023-01-31T08:52:01.229Z,446.00
2023-01-31T08:53:01.224Z,465.00
2023-01-31T08:54:01.211Z,412.00
2023-01-31T08:55:01.187Z,457.00
2023-01-31T08:56:01.205Z,456.00
2023-01-31T08:57:01.204Z,401.00
2023-01-31T08:58:01.169Z,327.00
2023-01-31T08:59:01.150Z,298.00
2023-01-31T09:00:01.136Z,238.00
2023-01-31T09:01:01.121Z,210.00
2023-01-31T09:02:01.149Z,146.00
2023-01-31T09:03:01.108Z,164.00
2023-01-31T09:04:01.116Z,193.00
2023-01-31T09:05:01.091Z,245.00
2023-01-31T09:06:01.071Z,241.00
2023-01-31T09:07:01.064Z,210.00
2023-01-31T09:08:01.085Z,204.00
2023-01-31T09:09:01.073Z,174.00
2023-01-31T09:10:01.033Z,192.00
2023-01-31T09:11:01.075Z,185.00
2023-01-31T09:12:01.011Z,299.00
2023-01-31T09:13:01.082Z,226.00
2023-01-31T09:14:01.033Z,279.00
2023-01-31T09:15:00.967Z,280.00
2023-01-31T09:16:00.985Z,291.00
2023-01-31T09:17:01.015Z,307.00
2023-01-31T09:18:00.949Z,352.00
2023-01-31T09:19:00.956Z,350.00
2023-01-31T09:20:00.951Z,321.00
2023-01-31T09:21:00.916Z,251.00
2023-01-31T09:22:00.914Z,337.00
2023-01-31T09:23:00.902Z,362.00
2023-01-31T09:24:00.933Z,391.00
2023-01-31T09:25:00.893Z,375.00
2023-01-31T09:26:00.880Z,583.00
2023-01-31T09:27:00.862Z,544.00
2023-01-31T09:28:00.896Z,570.00
2023-01-31T09:29:00.828Z,579.00
2023-01-31T09:30:00.844Z,509.00
2023-01-31T09:31:00.968Z,443.00
2023-01-31T09:32:00.910Z,402.00
2023-01-31T09:33:00.782Z,478.00
2023-01-31T09:34:00.780Z,387.00
2023-01-31T09:35:00.825Z,331.00
2023-01-31T09:36:00.773Z,247.00
2023-01-31T09:37:00.738Z,381.00
2023-01-31T09:38:00.770Z,491.00
2023-01-31T09:39:00.728Z,559.00
2023-01-31T09:40:00.717Z,520.00
2023-01-31T09:41:00.699Z,644.00
2023-01-31T09:42:00.719Z,633.00
2023-01-31T09:43:00.686Z,653.00
2023-01-31T09:44:00.693Z,625.00
2023-01-31T09:45:00.683Z,538.00
2023-01-31T09:46:00.692Z,542.00
2023-01-31T09:47:00.723Z,543.00
2023-01-31T09:48:00.655Z,500.00
2023-01-31T09:49:00.655Z,481.00
2023-01-31T09:50:00.615Z,430.00
2023-01-31T09:51:00.618Z,432.00
2023-01-31T09:52:00.588Z,344.00
2023-01-31T09:53:00.573Z,363.00
2023-01-31T09:54:00.580Z,393.00
2023-01-31T09:55:00.556Z,410.00
2023-01-31T09:56:00.579Z,385.00
2023-01-31T09:57:00.588Z,340.00
2023-01-31T09:58:00.524Z,316.00
2023-01-31T09:59:00.534Z,308.00
2023-01-31T10:00:00.517Z,274.00
2023-01-31T10:01:00.566Z,228.00
2023-01-31T10:02:00.487Z,230.00
2023-01-31T10:03:00.470Z,208.00
2023-01-31T10:04:00.524Z,202.00
2023-01-31T10:05:00.444Z,181.00
2023-01-31T10:06:00.473Z,173.00
2023-01-31T10:07:00.432Z,183.00
2023-01-31T10:08:00.451Z,219.00
2023-01-31T10:09:00.410Z,253.00
2023-01-31T10:10:00.437Z,223.00
2023-01-31T10:11:00.389Z,232.00
2023-01-31T10:12:00.393Z,234.00
2023-01-31T10:13:00.400Z,228.00
2023-01-31T10:14:00.362Z,264.00
2023-01-31T10:15:00.351Z,283.00
2023-01-31T10:16:00.340Z,291.00
2023-01-31T10:17:00.336Z,271.00
2023-01-31T10:18:00.729Z,252.00
2023-01-31T10:19:00.358Z,296.00
2023-01-31T10:20:00.316Z,289.00
2023-01-31T10:21:00.292Z,292.00
2023-01-31T10:22:00.276Z,258.00
2023-01-31T10:23:00.261Z,248.00
2023-01-31T10:24:00.262Z,229.00
2023-01-31T10:25:00.229Z,221.00
2023-01-31T10:26:00.242Z,209.00
2023-01-31T10:27:00.263Z,202.00
2023-01-31T10:28:00.216Z,234.00
2023-01-31T10:29:00.211Z,227.00
2023-01-31T10:30:00.195Z,217.00
2023-01-31T10:31:00.257Z,204.00
2023-01-31T10:32:00.220Z,222.00
2023-01-31T10:33:00.173Z,251.00
2023-01-31T10:34:00.167Z,290.00
2023-01-31T10:35:00.147Z,285.00
2023-01-31T10:36:00.205Z,288.00
2023-01-31T10:37:00.154Z,267.00
2023-01-31T10:38:00.132Z,223.00
2023-01-31T10:39:00.111Z,236.00
2023-01-31T10:40:00.096Z,219.00
2023-01-31T10:41:00.108Z,206.00
2023-01-31T10:42:00.060Z,221.00
2023-01-31T10:43:00.093Z,204.00
2023-01-31T10:44:00.092Z,194.00
2023-01-31T10:45:00.028Z,195.00
2023-01-31T10:46:00.083Z,179.00
2023-01-31T10:47:00.019Z,194.00
2023-01-31T10:48:00.018Z,216.00
2023-01-31T10:48:59.993Z,188.00
2023-01-31T10:49:59.985Z,179.00
2023-01-31T10:51:00.002Z,199.00
2023-01-31T10:51:59.947Z,182.00
2023-01-31T10:53:00.035Z,183.00
2023-01-31T10:53:59.961Z,177.00
2023-01-31T10:54:59.932Z,206.00
2023-01-31T10:56:00.307Z,213.00
2023-01-31T10:57:00.244Z,209.00
2023-01-31T10:58:00.281Z,233.00
2023-01-31T10:59:00.236Z,263.00
2023-01-31T10:59:59.880Z,264.00
2023-01-31T11:00:59.946Z,279.00
2023-01-31T11:01:59.952Z,262.00
2023-01-31T11:02:59.894Z,296.00
2023-01-31T11:03:59.864Z,303.00
2023-01-31T11:04:59.827Z,307.00
2023-01-31T11:05:59.812Z,302.00
2023-01-31T11:06:59.851Z,282.00
2023-01-31T11:07:59.960Z,263.00
2023-01-31T11:08:59.811Z,234.00
2023-01-31T11:09:59.787Z,214.00
2023-01-31T11:10:59.766Z,260.00
2023-01-31T11:11:59.821Z,270.00
2023-01-31T11:12:59.753Z,251.00
2023-01-31T11:13:59.746Z,231.00
2023-01-31T11:14:59.734Z,246.00
2023-01-31T11:15:59.726Z,242.00
2023-01-31T11:16:59.705Z,200.00
2023-01-31T11:17:59.693Z,199.00
2023-01-31T11:18:59.697Z,205.00
2023-01-31T11:19:59.685Z,218.00
2023-01-31T11:20:59.673Z,237.00
2023-01-31T11:21:59.644Z,219.00
2023-01-31T11:22:59.670Z,185.00
2023-01-31T11:23:59.667Z,207.00
2023-01-31T11:24:59.628Z,192.00
2023-01-31T11:25:59.601Z,228.00
2023-01-31T11:26:59.654Z,218.00
2023-01-31T11:27:59.640Z,220.00
2023-01-31T11:28:59.572Z,214.00
2023-01-31T11:30:00.390Z,233.00
2023-01-31T11:30:59.613Z,275.00
2023-01-31T11:31:59.683Z,379.00
2023-01-31T11:32:59.538Z,347.00
2023-01-31T11:33:59.564Z,295.00
2023-01-31T11:34:59.522Z,249.00
2023-01-31T11:35:59.520Z,241.00
2023-01-31T11:36:59.498Z,257.00
2023-01-31T11:37:59.570Z,271.00
2023-01-31T11:38:59.484Z,247.00
2023-01-31T11:39:59.506Z,212.00
2023-01-31T11:40:59.470Z,192.00
2023-01-31T11:41:59.442Z,180.00
2023-01-31T11:42:59.466Z,195.00
2023-01-31T11:43:59.409Z,227.00
2023-01-31T11:44:59.451Z,224.00
2023-01-31T11:45:59.455Z,224.00
2023-01-31T11:46:59.463Z,305.00
2023-01-31T11:47:59.393Z,372.00
2023-01-31T11:48:59.407Z,349.00
2023-01-31T11:49:59.374Z,310.00
2023-01-31T11:50:59.359Z,327.00
2023-01-31T11:51:59.355Z,319.00
2023-01-31T11:52:59.330Z,281.00
2023-01-31T11:53:59.318Z,262.00
2023-01-31T11:54:59.310Z,248.00
2023-01-31T11:55:59.292Z,228.00
2023-01-31T11:56:59.315Z,229.00
2023-01-31T11:57:59.286Z,210.00
2023-01-31T11:58:59.268Z,216.00
2023-01-31T11:59:59.244Z,253.00
2023-01-31T12:00:59.263Z,257.00
2023-01-31T12:01:59.298Z,274.00
2023-01-31T12:02:59.236Z,230.00
2023-01-31T12:04:03.627Z,215.00
2023-01-31T12:04:59.232Z,167.00
2023-01-31T12:05:59.197Z,191.00
2023-01-31T12:06:59.228Z,187.00
2023-01-31T12:07:59.182Z,176.00
2023-01-31T12:08:59.158Z,173.00
2023-01-31T12:09:59.141Z,178.00
2023-01-31T12:10:59.211Z,198.00
2023-01-31T12:11:59.153Z,209.00
2023-01-31T12:13:12.554Z,261.00
2023-01-31T12:13:59.108Z,231.00
2023-01-31T12:14:59.167Z,229.00
2023-01-31T12:15:59.087Z,224.00
2023-01-31T12:16:59.112Z,219.00
2023-01-31T12:17:59.075Z,193.00
2023-01-31T12:18:59.075Z,216.00
2023-01-31T12:19:59.050Z,238.00
2023-01-31T12:20:59.038Z,245.00
2023-01-31T12:21:59.016Z,228.00
2023-01-31T12:22:59.036Z,247.00
2023-01-31T12:23:58.990Z,232.00
2023-01-31T12:24:59.001Z,226.00
2023-01-31T12:25:59.002Z,220.00
2023-01-31T12:26:58.969Z,228.00
2023-01-31T12:27:58.981Z,246.00
2023-01-31T12:28:58.977Z,274.00
2023-01-31T12:29:58.927Z,272.00
2023-01-31T12:30:58.990Z,319.00
2023-01-31T12:31:58.907Z,308.00
2023-01-31T12:32:58.931Z,296.00
2023-01-31T12:33:58.893Z,288.00
2023-01-31T12:35:01.707Z,289.00
2023-01-31T12:35:58.875Z,315.00
2023-01-31T12:36:58.907Z,275.00
2023-01-31T12:37:58.883Z,296.00
2023-01-31T12:38:58.876Z,298.00
2023-01-31T12:39:58.831Z,300.00
2023-01-31T12:40:58.832Z,376.00
2023-01-31T12:41:58.801Z,367.00
2023-01-31T12:42:58.809Z,352.00
2023-01-31T12:43:58.806Z,354.00
2023-01-31T12:44:58.784Z,325.00
2023-01-31T12:45:58.789Z,337.00
2023-01-31T12:47:10.407Z,323.00
2023-01-31T12:47:58.874Z,292.00
2023-01-31T12:48:58.777Z,273.00
2023-01-31T12:49:58.713Z,251.00
2023-01-31T12:50:58.737Z,223.00
2023-01-31T12:51:58.699Z,209.00
2023-01-31T12:52:58.707Z,191.00
2023-01-31T12:53:58.682Z,220.00
2023-01-31T12:54:58.697Z,215.00
2023-01-31T12:55:58.671Z,246.00